Time;durP1;ratioP1;P1;durP2;ratioP2;P2;SDS_P1;SDS_P2;PMS_P1;PMS_P2;Temp;Humidity;BMP_temperature;BMP_pressure;BME280_temperature;BME280_humidity;BME280_pressure;Samples;Min_cycle;Max_cycle;Signal;HPM_P1;HPM_P2
2022/07/28 00:00:00;;;;;;;5.07;2.50;;;14.40;99.90;;;;;;5128521;27;20441;-67
2022/07/28 00:02:26;;;;;;;6.43;2.75;;;14.20;99.90;;;;;;5112460;28;20073;-67
2022/07/28 00:04:52;;;;;;;6.32;2.85;;;14.20;99.90;;;;;;5110522;28;20442;-67
2022/07/28 00:07:18;;;;;;;8.13;2.83;;;14.20;99.90;;;;;;5113743;28;20096;-67
2022/07/28 00:09:43;;;;;;;6.72;2.72;;;14.30;99.90;;;;;;5113565;28;20089;-67
2022/07/28 00:12:09;;;;;;;5.85;2.83;;;14.20;99.90;;;;;;5114079;28;20130;-67
2022/07/28 00:14:35;;;;;;;5.18;2.80;;;14.30;99.90;;;;;;5113789;28;20083;-67
2022/07/28 00:17:00;;;;;;;7.30;2.88;;;14.10;99.90;;;;;;5113763;28;20036;-67
2022/07/28 00:19:26;;;;;;;6.70;2.55;;;14.00;99.90;;;;;;5113574;28;20031;-67
2022/07/28 00:21:51;;;;;;;4.22;2.42;;;14.10;99.90;;;;;;5113865;28;20047;-67
2022/07/28 00:24:17;;;;;;;6.68;2.85;;;14.00;99.90;;;;;;5111893;28;20035;-67
2022/07/28 00:26:43;;;;;;;8.68;2.72;;;13.90;99.90;;;;;;5112965;28;20098;-67
2022/07/28 00:29:08;;;;;;;5.85;2.78;;;13.90;99.90;;;;;;5113219;28;20110;-67
2022/07/28 00:31:34;;;;;;;6.25;2.63;;;14.10;99.90;;;;;;5112088;28;20117;-67
2022/07/28 00:34:00;;;;;;;4.00;2.60;;;13.90;99.90;;;;;;5137766;27;20065;-67
2022/07/28 00:36:25;;;;;;;5.70;2.50;;;13.90;99.90;;;;;;5113637;28;20036;-67
2022/07/28 00:38:51;;;;;;;6.75;2.58;;;13.90;99.90;;;;;;5113343;28;20572;-67
2022/07/28 00:41:18;;;;;;;4.90;2.63;;;13.90;99.90;;;;;;5105912;28;20036;-67
2022/07/28 00:43:49;;;;;;;4.47;2.53;;;13.80;99.90;;;;;;5106600;28;20039;-67
2022/07/28 00:46:17;;;;;;;6.75;2.63;;;13.80;99.90;;;;;;5110825;28;20066;-67
2022/07/28 00:48:45;;;;;;;6.15;2.90;;;13.80;99.90;;;;;;5113101;28;20040;-67
2022/07/28 00:51:13;;;;;;;4.32;2.40;;;13.80;99.90;;;;;;5113220;28;20044;-67
2022/07/28 00:53:39;;;;;;;6.38;2.80;;;13.70;99.90;;;;;;5113683;28;20416;-67
2022/07/28 00:56:05;;;;;;;5.50;2.65;;;13.80;99.90;;;;;;5111765;28;20046;-67
2022/07/28 00:58:31;;;;;;;7.50;2.70;;;13.90;99.90;;;;;;5112781;28;20050;-67
2022/07/28 01:00:57;;;;;;;7.63;2.70;;;13.80;99.90;;;;;;5115650;28;20119;-67
2022/07/28 01:03:23;;;;;;;4.47;2.60;;;13.80;99.90;;;;;;5117397;28;20050;-67
2022/07/28 01:05:53;;;;;;;6.63;2.75;;;13.80;99.90;;;;;;5117134;28;20110;-67
2022/07/28 01:08:45;;;;;;;4.60;2.30;;;13.70;99.90;;;;;;5117264;28;20043;-67
2022/07/28 01:11:48;;;;;;;5.55;2.50;;;13.80;99.90;;;;;;5097359;28;20050;-67
2022/07/28 01:14:18;;;;;;;7.78;2.70;;;13.80;99.90;;;;;;5115710;28;20090;-67
2022/07/28 01:17:02;;;;;;;7.85;3.10;;;13.70;99.90;;;;;;5117461;28;20047;-67
2022/07/28 01:19:46;;;;;;;5.78;2.70;;;13.80;99.90;;;;;;5115825;28;20047;-67
2022/07/28 01:22:19;;;;;;;6.90;2.75;;;13.70;99.90;;;;;;5115949;28;20108;-67
2022/07/28 01:25:19;;;;;;;7.80;2.90;;;13.80;99.90;;;;;;5116073;28;20051;-67
2022/07/28 01:28:04;;;;;;;4.93;2.42;;;13.80;99.90;;;;;;5115845;28;20092;-67
2022/07/28 01:30:38;;;;;;;5.72;2.53;;;13.80;99.90;;;;;;5102797;28;20397;-67
2022/07/28 01:33:10;;;;;;;3.50;2.40;;;13.80;99.90;;;;;;5096447;28;20411;-67
2022/07/28 01:35:45;;;;;;;5.50;2.40;;;13.80;99.90;;;;;;5107866;28;20104;-67
2022/07/28 01:38:12;;;;;;;7.13;2.40;;;13.80;99.90;;;;;;5111857;28;20059;-67
2022/07/28 01:40:42;;;;;;;4.97;2.40;;;13.70;99.90;;;;;;5115468;28;20051;-67
2022/07/28 01:43:13;;;;;;;4.50;2.20;;;13.80;99.90;;;;;;5116715;28;20093;-67
2022/07/28 01:45:40;;;;;;;7.72;2.55;;;13.70;99.90;;;;;;5116533;28;20126;-67
2022/07/28 01:48:08;;;;;;;4.65;2.50;;;13.70;99.90;;;;;;5116408;28;20050;-67
2022/07/28 01:50:36;;;;;;;5.75;2.33;;;13.70;99.90;;;;;;5115693;28;20080;-67
2022/07/28 01:53:02;;;;;;;4.97;2.50;;;13.70;99.90;;;;;;5116481;28;20039;-67
2022/07/28 01:55:29;;;;;;;6.05;2.67;;;13.70;99.90;;;;;;5116456;28;20047;-67
2022/07/28 01:57:56;;;;;;;7.97;2.70;;;13.70;99.90;;;;;;5116587;28;20038;-67
2022/07/28 02:00:24;;;;;;;6.45;2.30;;;13.70;99.90;;;;;;5116137;28;20395;-67
2022/07/28 02:02:52;;;;;;;5.82;2.80;;;13.60;99.90;;;;;;5114777;28;20050;-68
2022/07/28 02:05:20;;;;;;;4.80;2.20;;;13.70;99.90;;;;;;5113039;28;20044;-67
2022/07/28 02:07:48;;;;;;;5.10;2.60;;;13.70;99.90;;;;;;5113511;28;20048;-67
2022/07/28 02:10:15;;;;;;;6.90;2.55;;;13.70;99.90;;;;;;5115716;28;20063;-67
2022/07/28 02:12:43;;;;;;;5.97;3.38;;;13.70;99.90;;;;;;5113797;28;20475;-67
2022/07/28 02:15:11;;;;;;;5.82;2.83;;;13.70;99.90;;;;;;5116024;28;20051;-67
2022/07/28 02:17:39;;;;;;;6.75;2.92;;;13.70;99.90;;;;;;5114994;28;20039;-67
2022/07/28 02:20:08;;;;;;;7.47;2.95;;;13.70;99.90;;;;;;5114278;28;20491;-67
2022/07/28 02:22:36;;;;;;;10.00;3.30;;;13.70;99.90;;;;;;5116111;28;20096;-67
2022/07/28 02:25:03;;;;;;;7.68;3.20;;;13.60;99.90;;;;;;5114483;28;20115;-67
2022/07/28 02:27:58;;;;;;;6.20;3.60;;;13.50;99.90;;;;;;5115889;28;20043;-67
2022/07/28 02:30:36;;;;;;;6.35;3.40;;;13.60;99.90;;;;;;5114810;28;20048;-67
2022/07/28 02:33:10;;;;;;;7.30;3.13;;;13.50;99.90;;;;;;5115709;28;20051;-67
2022/07/28 02:35:47;;;;;;;6.78;3.70;;;13.50;99.90;;;;;;5113360;28;20040;-67
2022/07/28 02:38:20;;;;;;;5.43;3.03;;;13.50;99.90;;;;;;5115423;28;20039;-67
2022/07/28 02:40:48;;;;;;;6.80;3.17;;;13.50;99.90;;;;;;5115471;28;20044;-67
2022/07/28 02:43:18;;;;;;;6.07;3.13;;;13.50;99.90;;;;;;5114145;28;20044;-67
2022/07/28 02:45:50;;;;;;;7.03;3.78;;;13.50;99.90;;;;;;5096546;28;20136;-67
2022/07/28 02:48:22;;;;;;;5.97;3.15;;;13.50;99.90;;;;;;5115470;28;20533;-67
2022/07/28 02:50:50;;;;;;;6.65;3.20;;;13.40;99.90;;;;;;5113085;28;20051;-67
2022/07/28 02:53:16;;;;;;;5.95;4.05;;;13.50;99.90;;;;;;5098326;28;20126;-68
2022/07/28 02:55:45;;;;;;;8.15;4.03;;;13.40;99.90;;;;;;5114079;28;20131;-67
2022/07/28 02:58:11;;;;;;;7.07;3.60;;;13.50;99.90;;;;;;5114094;28;20046;-67
2022/07/28 03:00:38;;;;;;;8.00;3.63;;;13.50;99.90;;;;;;5115252;28;20092;-67
2022/07/28 03:03:05;;;;;;;8.60;3.83;;;13.50;99.90;;;;;;5114958;28;20043;-67
2022/07/28 03:05:31;;;;;;;7.03;3.47;;;13.50;99.90;;;;;;5115159;28;20065;-67
2022/07/28 03:07:58;;;;;;;6.60;3.60;;;13.60;99.90;;;;;;5115208;28;20044;-67
2022/07/28 03:10:26;;;;;;;6.97;3.67;;;13.80;99.90;;;;;;5115001;28;20043;-67
2022/07/28 03:12:53;;;;;;;6.05;3.38;;;13.60;99.90;;;;;;5115050;28;20101;-67
2022/07/28 03:15:19;;;;;;;7.82;3.33;;;13.70;99.90;;;;;;5115092;28;20039;-67
2022/07/28 03:17:45;;;;;;;6.63;3.40;;;13.90;99.90;;;;;;5115053;28;20081;-67
2022/07/28 03:20:11;;;;;;;4.15;2.92;;;13.70;99.90;;;;;;5114575;28;20040;-67
2022/07/28 03:22:37;;;;;;;5.68;3.00;;;13.90;99.90;;;;;;5114769;27;20440;-67
2022/07/28 03:25:11;;;;;;;8.18;2.80;;;13.80;99.90;;;;;;5114893;28;20048;-67
2022/07/28 03:27:40;;;;;;;6.03;2.97;;;13.80;99.90;;;;;;5114010;28;20395;-67
2022/07/28 03:30:10;;;;;;;8.60;3.15;;;13.80;99.90;;;;;;5112901;28;20094;-67
2022/07/28 03:32:40;;;;;;;7.88;3.28;;;13.90;99.90;;;;;;5114564;28;20122;-67
2022/07/28 03:35:06;;;;;;;8.30;3.10;;;13.90;99.90;;;;;;5111112;28;20046;-67
2022/07/28 03:37:48;;;;;;;5.30;3.13;;;13.90;99.90;;;;;;5114799;28;20054;-67
2022/07/28 03:40:14;;;;;;;6.03;3.10;;;13.90;99.90;;;;;;5114453;28;20070;-66
2022/07/28 03:42:43;;;;;;;9.75;3.03;;;14.00;99.90;;;;;;5102443;28;20495;-67
2022/07/28 03:45:09;;;;;;;6.97;3.28;;;14.00;99.90;;;;;;5113065;28;20054;-67
2022/07/28 03:47:35;;;;;;;6.03;3.10;;;14.00;99.90;;;;;;5113215;28;20040;-67
2022/07/28 03:50:00;;;;;;;6.63;2.50;;;14.00;99.90;;;;;;5111032;28;20042;-67
2022/07/28 03:52:26;;;;;;;6.03;2.80;;;14.10;99.90;;;;;;5112652;28;20097;-67
2022/07/28 03:54:52;;;;;;;5.30;2.63;;;14.10;99.90;;;;;;5113928;28;20051;-67
2022/07/28 03:57:17;;;;;;;4.13;2.30;;;14.10;99.90;;;;;;5114463;28;20075;-67
2022/07/28 03:59:43;;;;;;;4.30;2.42;;;14.10;99.90;;;;;;5114197;28;20050;-67
2022/07/28 04:02:08;;;;;;;4.20;2.33;;;14.20;99.90;;;;;;5112176;28;20034;-67
2022/07/28 04:04:34;;;;;;;4.72;2.50;;;14.10;99.90;;;;;;5113819;28;20084;-67
2022/07/28 04:07:00;;;;;;;6.03;2.60;;;14.20;99.90;;;;;;5114114;28;20036;-67
2022/07/28 04:09:25;;;;;;;6.10;2.70;;;14.20;99.90;;;;;;5114134;28;20038;-67
2022/07/28 04:11:51;;;;;;;6.70;2.50;;;14.20;99.90;;;;;;5110821;28;20036;-67
2022/07/28 04:14:17;;;;;;;4.95;2.40;;;14.20;99.90;;;;;;5109914;28;20054;-67
2022/07/28 04:16:43;;;;;;;4.95;2.50;;;14.30;99.90;;;;;;5112585;28;20043;-67
2022/07/28 04:19:08;;;;;;;4.88;2.55;;;14.50;99.90;;;;;;5112458;28;20403;-67
2022/07/28 04:21:34;;;;;;;8.50;2.67;;;14.20;99.90;;;;;;5112792;28;20085;-67
2022/07/28 04:23:59;;;;;;;7.68;2.40;;;14.30;99.90;;;;;;5113215;28;20131;-67
2022/07/28 04:26:25;;;;;;;7.43;2.28;;;14.40;99.90;;;;;;5146198;27;20081;-67
2022/07/28 04:28:51;;;;;;;7.00;2.60;;;14.30;99.90;;;;;;5112240;28;20483;-67
2022/07/28 04:31:16;;;;;;;5.97;2.50;;;14.20;99.90;;;;;;5110928;28;20097;-67
2022/07/28 04:33:42;;;;;;;4.60;2.22;;;14.20;99.90;;;;;;5108826;28;20040;-67
2022/07/28 04:36:08;;;;;;;8.55;2.88;;;14.20;99.90;;;;;;5092963;28;20042;-67
2022/07/28 04:38:35;;;;;;;4.63;2.78;;;14.10;99.90;;;;;;5095877;28;20044;-67
2022/07/28 04:41:00;;;;;;;4.28;2.45;;;14.40;99.90;;;;;;5113329;28;20086;-67
2022/07/28 04:43:26;;;;;;;5.00;2.67;;;14.90;99.90;;;;;;5112919;28;20060;-67
2022/07/28 04:45:52;;;;;;;6.30;2.72;;;14.10;99.90;;;;;;5112054;28;20043;-67
2022/07/28 04:48:18;;;;;;;5.70;2.60;;;15.10;99.90;;;;;;5113399;28;20043;-67
2022/07/28 04:50:44;;;;;;;8.00;2.70;;;14.10;99.90;;;;;;5113205;28;20112;-67
2022/07/28 04:53:11;;;;;;;8.65;3.42;;;14.20;99.90;;;;;;5111428;28;20040;-67
2022/07/28 04:55:38;;;;;;;6.00;2.72;;;14.20;99.90;;;;;;5113451;28;20039;-67
2022/07/28 04:58:04;;;;;;;4.45;2.75;;;14.30;99.90;;;;;;5112986;28;20122;-67
2022/07/28 05:00:30;;;;;;;7.30;2.80;;;14.30;99.90;;;;;;5112173;28;20048;-67
2022/07/28 05:02:57;;;;;;;6.45;2.90;;;14.40;99.90;;;;;;5111535;28;20044;-67
2022/07/28 05:05:23;;;;;;;6.85;2.72;;;14.50;99.90;;;;;;5105684;28;20458;-67
2022/07/28 05:07:49;;;;;;;6.88;2.88;;;14.50;99.90;;;;;;5099235;28;20039;-67
2022/07/28 05:10:15;;;;;;;6.88;2.75;;;14.80;99.90;;;;;;5112948;28;20036;-67
2022/07/28 05:12:40;;;;;;;5.65;2.67;;;14.50;99.90;;;;;;5112800;28;20503;-67
2022/07/28 05:15:08;;;;;;;5.90;2.78;;;14.60;99.90;;;;;;5112959;28;20052;-67
2022/07/28 05:17:34;;;;;;;7.22;2.55;;;14.60;99.90;;;;;;5113139;28;20047;-67
2022/07/28 05:19:59;;;;;;;7.57;2.50;;;14.60;99.90;;;;;;5112890;28;20044;-67
2022/07/28 05:22:25;;;;;;;6.60;2.65;;;14.60;99.90;;;;;;5112711;28;20044;-67
2022/07/28 05:24:50;;;;;;;5.35;2.80;;;14.70;99.90;;;;;;5111790;28;20047;-67
2022/07/28 05:27:16;;;;;;;6.90;2.55;;;14.70;99.90;;;;;;5111321;28;20039;-67
2022/07/28 05:29:42;;;;;;;4.43;2.55;;;14.80;99.90;;;;;;5112767;28;20096;-67
2022/07/28 05:32:08;;;;;;;4.00;2.30;;;14.80;99.90;;;;;;5112429;28;20589;-67
2022/07/28 05:34:34;;;;;;;6.00;2.35;;;14.90;99.90;;;;;;5121525;28;20050;-67
2022/07/28 05:37:01;;;;;;;5.00;2.30;;;15.00;99.90;;;;;;5112670;28;20518;-67
2022/07/28 05:39:33;;;;;;;3.95;2.20;;;15.00;99.90;;;;;;5112590;28;20042;-67
2022/07/28 05:41:59;;;;;;;5.88;2.20;;;15.00;99.90;;;;;;5111132;28;20088;-67
2022/07/28 05:44:25;;;;;;;5.57;2.15;;;15.00;99.90;;;;;;5111031;28;20044;-67
2022/07/28 05:46:50;;;;;;;6.82;2.40;;;15.10;99.90;;;;;;5115869;28;20040;-67
2022/07/28 05:49:16;;;;;;;8.90;4.07;;;15.20;99.90;;;;;;5116170;28;20081;-67
2022/07/28 05:51:42;;;;;;;8.20;3.13;;;15.10;99.90;;;;;;5113193;28;20036;-67
2022/07/28 05:54:07;;;;;;;7.32;3.60;;;15.20;99.90;;;;;;5109139;28;20036;-67
2022/07/28 05:56:33;;;;;;;9.38;4.18;;;15.20;99.90;;;;;;5095843;28;20036;-67
2022/07/28 05:58:59;;;;;;;7.20;4.03;;;15.50;99.90;;;;;;5093037;28;20113;-67
2022/07/28 06:01:24;;;;;;;10.65;5.90;;;15.70;99.90;;;;;;5105194;28;20134;-67
2022/07/28 06:03:51;;;;;;;10.75;5.68;;;15.50;99.90;;;;;;5115173;28;20035;-67
2022/07/28 06:06:18;;;;;;;10.02;5.40;;;15.60;99.90;;;;;;5116041;28;20050;-67
2022/07/28 06:08:45;;;;;;;10.93;5.35;;;15.70;99.90;;;;;;5116333;28;20043;-67
2022/07/28 06:11:11;;;;;;;8.57;4.28;;;15.70;99.90;;;;;;5116239;28;20379;-67
2022/07/28 06:13:38;;;;;;;8.27;4.53;;;15.80;99.90;;;;;;5114197;28;20487;-67
2022/07/28 06:16:05;;;;;;;7.55;3.60;;;16.00;99.90;;;;;;5114769;28;20407;-67
2022/07/28 06:18:31;;;;;;;4.18;2.00;;;15.90;99.90;;;;;;5114263;28;20048;-67
2022/07/28 06:20:57;;;;;;;5.97;2.15;;;16.00;99.90;;;;;;5115311;28;20040;-68
2022/07/28 06:23:23;;;;;;;6.18;1.90;;;15.90;99.90;;;;;;5115517;28;20126;-68
2022/07/28 06:25:52;;;;;;;4.72;1.83;;;16.00;99.90;;;;;;5115925;28;20039;-68
2022/07/28 06:28:18;;;;;;;5.75;1.70;;;16.00;99.90;;;;;;5116039;28;20438;-69
2022/07/28 06:30:48;;;;;;;5.68;1.63;;;16.00;99.90;;;;;;5106093;28;20056;-68
2022/07/28 06:33:15;;;;;;;6.88;1.65;;;16.10;99.90;;;;;;5095227;28;20056;-68
2022/07/28 06:35:41;;;;;;;6.07;1.80;;;16.10;99.90;;;;;;5098059;28;20040;-68
2022/07/28 06:38:07;;;;;;;5.05;1.98;;;16.20;99.90;;;;;;5115941;28;20372;-68
2022/07/28 06:40:33;;;;;;;9.20;2.53;;;16.40;99.90;;;;;;5115663;28;20039;-68
2022/07/28 06:42:58;;;;;;;9.02;2.90;;;16.20;99.90;;;;;;5115022;28;20040;-68
2022/07/28 06:45:24;;;;;;;6.07;2.60;;;16.20;99.90;;;;;;5114594;28;20039;-68
2022/07/28 06:47:50;;;;;;;5.70;2.65;;;16.30;99.90;;;;;;5115629;28;20039;-68
2022/07/28 06:50:16;;;;;;;7.90;2.72;;;16.30;99.90;;;;;;5113953;28;20040;-68
2022/07/28 06:52:42;;;;;;;6.82;2.42;;;16.30;99.90;;;;;;5137682;27;20062;-68
2022/07/28 06:55:08;;;;;;;8.45;2.33;;;16.50;99.90;;;;;;5128791;27;20100;-68
2022/07/28 06:57:34;;;;;;;8.63;2.60;;;16.40;99.90;;;;;;5130737;27;20118;-68
2022/07/28 07:00:02;;;;;;;5.20;2.25;;;16.40;99.90;;;;;;5114970;28;20126;-68
2022/07/28 07:02:27;;;;;;;6.50;2.10;;;16.30;99.90;;;;;;5115104;27;20169;-68
2022/07/28 07:04:53;;;;;;;6.45;2.10;;;16.30;99.90;;;;;;5115040;28;20059;-68
2022/07/28 07:07:19;;;;;;;5.25;2.00;;;16.30;99.90;;;;;;5114920;28;20043;-68
2022/07/28 07:09:44;;;;;;;7.47;2.22;;;16.30;99.90;;;;;;5112325;28;20027;-68
2022/07/28 07:12:10;;;;;;;4.80;1.70;;;16.20;99.90;;;;;;5114574;27;20047;-68
2022/07/28 07:14:36;;;;;;;8.65;2.03;;;16.50;99.90;;;;;;5093098;28;20370;-68
2022/07/28 07:17:01;;;;;;;5.90;2.40;;;16.20;99.90;;;;;;5131522;27;20398;-68
2022/07/28 07:19:27;;;;;;;6.15;2.92;;;16.20;99.90;;;;;;5133304;27;20551;-69
2022/07/28 07:21:53;;;;;;;5.65;2.90;;;16.10;99.90;;;;;;5114690;28;20421;-68
2022/07/28 07:24:18;;;;;;;8.57;2.90;;;16.10;99.90;;;;;;5097955;28;20035;-68
2022/07/28 07:26:44;;;;;;;5.28;2.80;;;16.00;99.90;;;;;;5104969;28;20039;-67
2022/07/28 07:29:10;;;;;;;7.35;2.70;;;16.00;99.90;;;;;;5111590;28;20051;-68
2022/07/28 07:31:37;;;;;;;7.13;2.45;;;16.00;99.90;;;;;;5093951;28;20052;-68
2022/07/28 07:34:03;;;;;;;6.28;2.45;;;16.00;99.90;;;;;;5094195;28;20076;-68
2022/07/28 07:36:29;;;;;;;7.57;2.60;;;16.10;99.90;;;;;;5093917;28;20040;-68
2022/07/28 07:38:54;;;;;;;7.40;2.60;;;16.10;99.90;;;;;;5094156;28;20468;-67
2022/07/28 07:41:20;;;;;;;12.25;2.72;;;16.20;99.90;;;;;;5100704;28;20176;-68
2022/07/28 07:43:47;;;;;;;5.93;2.40;;;16.20;99.90;;;;;;5113179;28;20032;-67
2022/07/28 07:46:13;;;;;;;6.30;2.30;;;16.30;99.90;;;;;;5113145;28;20097;-68
2022/07/28 07:48:38;;;;;;;6.65;2.40;;;16.30;99.90;;;;;;5114089;28;20433;-67
2022/07/28 07:51:04;;;;;;;9.35;2.80;;;16.40;99.90;;;;;;5113357;28;20042;-68
2022/07/28 07:53:30;;;;;;;4.63;2.20;;;16.50;99.90;;;;;;5112117;28;20443;-68
2022/07/28 07:55:56;;;;;;;8.95;2.15;;;16.40;99.90;;;;;;5146773;27;20046;-70
2022/07/28 07:58:22;;;;;;;6.25;2.03;;;16.50;99.90;;;;;;5114246;28;20087;-71
2022/07/28 08:00:48;;;;;;;5.22;1.90;;;16.50;99.90;;;;;;5146939;27;20044;-71
2022/07/28 08:03:15;;;;;;;7.10;2.20;;;16.60;99.90;;;;;;5107972;28;20126;-71
2022/07/28 08:05:41;;;;;;;4.05;1.85;;;16.60;99.90;;;;;;5119849;27;20043;-71
2022/07/28 08:08:07;;;;;;;4.80;2.00;;;16.60;99.90;;;;;;5132676;27;20265;-71
2022/07/28 08:10:37;;;;;;;8.80;2.15;;;16.70;99.90;;;;;;5120072;27;20047;-71
2022/07/28 08:13:05;;;;;;;4.70;2.10;;;16.60;99.90;;;;;;5111852;28;20516;-72
2022/07/28 08:15:31;;;;;;;7.85;2.00;;;16.60;99.90;;;;;;5125854;27;20047;-71
2022/07/28 08:17:57;;;;;;;4.30;1.85;;;16.60;99.90;;;;;;5114739;27;20032;-71
2022/07/28 08:20:22;;;;;;;6.18;2.17;;;16.60;99.90;;;;;;5111148;28;20090;-71
2022/07/28 08:22:50;;;;;;;6.70;1.90;;;16.70;99.90;;;;;;5112168;28;20507;-71
2022/07/28 08:25:15;;;;;;;3.30;1.70;;;16.70;99.90;;;;;;5113264;28;20044;-71
2022/07/28 08:27:41;;;;;;;4.82;1.45;;;16.60;99.90;;;;;;5112107;28;20388;-72
2022/07/28 08:30:08;;;;;;;7.20;2.20;;;16.70;99.90;;;;;;5111810;28;20055;-72
2022/07/28 08:32:33;;;;;;;5.35;1.63;;;16.70;99.90;;;;;;5113497;28;20172;-72
2022/07/28 08:34:59;;;;;;;4.63;2.10;;;16.80;99.90;;;;;;5113204;28;20075;-72
2022/07/28 08:37:25;;;;;;;6.07;1.80;;;17.30;99.90;;;;;;5113061;28;20491;-72
2022/07/28 08:39:50;;;;;;;6.20;1.80;;;17.20;99.90;;;;;;5113080;28;20035;-72
2022/07/28 08:42:24;;;;;;;4.55;1.73;;;17.40;99.90;;;;;;5113411;28;20052;-72
2022/07/28 08:45:04;;;;;;;4.55;1.55;;;17.50;99.90;;;;;;5111121;28;20463;-72
2022/07/28 08:47:32;;;;;;;3.47;1.40;;;17.60;99.90;;;;;;5112031;28;20053;-72
2022/07/28 08:49:59;;;;;;;3.10;1.38;;;17.80;99.90;;;;;;5110008;28;20036;-69
2022/07/28 08:52:28;;;;;;;6.57;1.60;;;18.00;99.90;;;;;;5088425;28;20047;-69
2022/07/28 08:54:55;;;;;;;4.13;1.38;;;18.00;99.90;;;;;;5089613;28;20044;-70
2022/07/28 08:57:32;;;;;;;6.05;1.60;;;18.10;99.90;;;;;;5089827;28;20055;-69
2022/07/28 08:59:58;;;;;;;3.97;1.40;;;18.00;99.90;;;;;;5095962;28;20363;-70
2022/07/28 09:02:25;;;;;;;4.53;1.23;;;18.20;99.90;;;;;;5109575;28;20051;-69
2022/07/28 09:04:53;;;;;;;6.32;1.52;;;18.40;99.90;;;;;;5109884;28;20036;-69
2022/07/28 09:07:19;;;;;;;4.38;1.55;;;18.70;99.90;;;;;;5110060;28;20419;-69
2022/07/28 09:09:48;;;;;;;3.40;1.38;;;19.00;99.90;;;;;;5109517;28;20032;-70
2022/07/28 09:12:13;;;;;;;4.28;1.27;;;19.30;99.90;;;;;;5125651;28;20507;-70
2022/07/28 09:14:39;;;;;;;4.15;1.45;;;19.40;99.90;;;;;;5115360;28;20091;-71
2022/07/28 09:17:05;;;;;;;3.97;1.40;;;19.60;99.90;;;;;;5111278;28;20040;-70
2022/07/28 09:19:31;;;;;;;3.22;1.50;;;19.90;99.90;;;;;;5110693;28;20043;-71
2022/07/28 09:21:59;;;;;;;4.13;1.42;;;20.10;99.90;;;;;;5116036;28;20392;-70
2022/07/28 09:24:32;;;;;;;5.72;1.50;;;20.30;99.90;;;;;;5115998;28;20067;-70
2022/07/28 09:27:00;;;;;;;3.83;1.27;;;20.40;99.90;;;;;;5115773;28;20040;-70
2022/07/28 09:29:25;;;;;;;3.35;1.30;;;21.10;99.90;;;;;;5114636;28;20047;-71
2022/07/28 09:31:51;;;;;;;2.90;1.13;;;21.70;99.90;;;;;;5115344;28;20523;-71
2022/07/28 09:34:17;;;;;;;5.43;1.52;;;22.00;99.90;;;;;;5116352;28;20142;-69
2022/07/28 09:36:43;;;;;;;5.53;1.40;;;22.20;99.90;;;;;;5132348;27;20050;-69
2022/07/28 09:39:09;;;;;;;3.90;1.30;;;22.60;99.90;;;;;;5116307;28;20500;-71
2022/07/28 09:41:51;;;;;;;4.07;1.50;;;22.40;99.90;;;;;;5147806;27;20423;-69
2022/07/28 09:44:19;;;;;;;3.03;1.50;;;22.50;99.70;;;;;;5113807;28;20142;-68
2022/07/28 09:46:45;;;;;;;6.15;1.65;;;23.10;99.80;;;;;;5116182;27;20126;-69
2022/07/28 09:49:10;;;;;;;5.15;1.63;;;23.40;99.30;;;;;;5113273;28;20128;-70
2022/07/28 09:51:37;;;;;;;3.72;1.40;;;24.20;98.70;;;;;;5147374;27;20143;-79
2022/07/28 09:54:11;;;;;;;10.48;1.85;;;26.20;97.30;;;;;;5116976;28;20449;-79
2022/07/28 09:56:42;;;;;;;2.28;1.40;;;27.30;94.40;;;;;;5116536;28;20047;-79
2022/07/28 09:59:09;;;;;;;2.67;1.40;;;28.60;94.10;;;;;;5115994;28;20555;-79
2022/07/28 10:01:57;;;;;;;4.03;1.38;;;30.10;92.70;;;;;;5116082;28;20517;-79
2022/07/28 10:04:40;;;;;;;3.58;1.30;;;31.20;89.30;;;;;;5115291;28;20052;-78
2022/07/28 10:07:15;;;;;;;5.25;1.50;;;29.80;90.00;;;;;;5117524;27;20031;-78
2022/07/28 10:09:41;;;;;;;6.20;1.45;;;28.70;90.80;;;;;;5136375;27;20047;-79
2022/07/28 10:12:21;;;;;;;4.32;1.30;;;26.80;91.90;;;;;;5115825;27;20078;-78
2022/07/28 10:14:50;;;;;;;3.78;1.27;;;25.70;92.70;;;;;;5100841;28;20043;-79
2022/07/28 10:17:23;;;;;;;4.38;1.30;;;24.90;93.60;;;;;;5098873;28;20032;-79
2022/07/28 10:19:49;;;;;;;3.25;1.20;;;24.20;94.00;;;;;;5095297;28;20044;-79
2022/07/28 10:22:17;;;;;;;4.68;1.58;;;23.40;94.30;;;;;;5095344;28;20427;-79
2022/07/28 10:24:46;;;;;;;3.65;1.10;;;23.00;95.00;;;;;;5094992;28;20047;-79
2022/07/28 10:27:13;;;;;;;3.70;1.20;;;23.40;95.50;;;;;;5095208;28;20040;-70
2022/07/28 10:29:41;;;;;;;3.22;1.60;;;25.40;94.40;;;;;;5104672;28;20105;-70
2022/07/28 10:32:07;;;;;;;2.28;1.20;;;27.60;93.00;;;;;;5114077;28;20044;-70
2022/07/28 10:34:36;;;;;;;2.78;1.20;;;29.20;91.90;;;;;;5115076;28;20084;-71
2022/07/28 10:37:03;;;;;;;2.72;1.17;;;30.50;91.00;;;;;;5114284;28;20039;-71
2022/07/28 10:39:45;;;;;;;4.10;1.42;;;30.60;87.10;;;;;;5112319;28;20055;-73
2022/07/28 10:42:12;;;;;;;1.55;1.05;;;31.20;88.50;;;;;;5115477;28;20480;-71
2022/07/28 10:44:38;;;;;;;3.22;1.30;;;31.50;88.50;;;;;;5114889;28;20071;-71
2022/07/28 10:47:09;;;;;;;2.35;1.10;;;31.00;86.60;;;;;;5114131;28;20079;-71
2022/07/28 10:49:35;;;;;;;6.50;1.38;;;30.00;85.30;;;;;;5115422;28;20482;-71
2022/07/28 10:52:02;;;;;;;3.35;1.40;;;29.50;87.40;;;;;;5114974;28;20043;-70
2022/07/28 10:54:35;;;;;;;3.25;1.23;;;29.20;88.20;;;;;;5115085;28;20051;-71
2022/07/28 10:57:03;;;;;;;3.30;1.23;;;28.40;86.60;;;;;;5115407;28;20048;-70
2022/07/28 10:59:52;;;;;;;4.25;1.48;;;28.00;89.70;;;;;;5115231;28;20043;-70
2022/07/28 11:02:44;;;;;;;3.35;1.15;;;27.40;88.30;;;;;;5115021;28;20400;-70
2022/07/28 11:05:37;;;;;;;3.70;1.40;;;27.10;89.90;;;;;;5113260;28;20051;-70
2022/07/28 11:08:15;;;;;;;1.85;1.15;;;26.50;89.80;;;;;;5113970;28;20040;-70
2022/07/28 11:10:42;;;;;;;2.83;1.30;;;25.70;90.10;;;;;;5114809;28;20271;-70
2022/07/28 11:13:24;;;;;;;3.15;1.40;;;25.30;91.10;;;;;;5114928;28;20039;-70
2022/07/28 11:15:50;;;;;;;2.90;1.10;;;24.80;91.40;;;;;;5113740;28;20039;-70
2022/07/28 11:18:15;;;;;;;4.20;1.20;;;24.20;92.10;;;;;;5113478;28;20050;-70
2022/07/28 11:20:56;;;;;;;2.90;1.20;;;23.60;92.50;;;;;;5114623;28;20048;-71
2022/07/28 11:23:45;;;;;;;3.72;1.30;;;23.40;92.80;;;;;;5110121;28;20553;-70
2022/07/28 11:26:23;;;;;;;2.03;1.10;;;23.10;93.10;;;;;;5093929;28;20447;-70
2022/07/28 11:29:02;;;;;;;2.33;1.27;;;23.00;93.30;;;;;;5094204;28;20050;-71
2022/07/28 11:31:43;;;;;;;3.10;1.20;;;22.80;93.80;;;;;;5093915;28;20123;-71
2022/07/28 11:34:14;;;;;;;2.25;1.13;;;22.80;93.80;;;;;;5094178;28;20040;-71
2022/07/28 11:37:05;;;;;;;2.22;1.20;;;22.70;93.50;;;;;;5094385;28;20036;-71
2022/07/28 11:39:38;;;;;;;3.53;1.58;;;22.60;93.50;;;;;;5093711;28;20075;-71
2022/07/28 11:42:23;;;;;;;3.22;1.48;;;22.40;93.60;;;;;;5093940;28;20079;-71
2022/07/28 11:44:51;;;;;;;4.83;1.50;;;22.30;93.90;;;;;;5093733;28;20143;-70
2022/07/28 11:47:27;;;;;;;4.85;1.42;;;22.40;94.30;;;;;;5092744;28;20274;-71
2022/07/28 11:50:13;;;;;;;3.05;1.20;;;22.20;94.70;;;;;;5093737;28;20341;-71
2022/07/28 11:53:00;;;;;;;3.75;1.58;;;22.00;95.10;;;;;;5108728;28;20439;-71
2022/07/28 11:55:26;;;;;;;4.47;1.38;;;22.00;94.90;;;;;;5097142;28;20083;-71
2022/07/28 11:57:52;;;;;;;4.03;1.50;;;22.00;95.00;;;;;;5093788;28;20071;-71
2022/07/28 12:00:20;;;;;;;2.25;1.13;;;21.80;94.80;;;;;;5093490;28;20475;-71
2022/07/28 12:02:45;;;;;;;4.03;1.25;;;21.80;94.60;;;;;;5092616;28;20044;-71
2022/07/28 12:05:13;;;;;;;4.88;1.40;;;21.90;94.50;;;;;;5093597;28;20079;-71
2022/07/28 12:07:41;;;;;;;4.40;1.42;;;22.00;94.40;;;;;;5093527;28;20046;-72
2022/07/28 12:10:26;;;;;;;4.13;1.50;;;22.20;94.20;;;;;;5093538;28;20488;-71
2022/07/28 12:12:54;;;;;;;2.40;1.40;;;22.20;93.90;;;;;;5093030;28;20048;-71
2022/07/28 12:15:20;;;;;;;4.65;1.65;;;22.30;93.70;;;;;;5092250;28;20064;-71
2022/07/28 12:17:47;;;;;;;4.45;1.40;;;22.40;93.60;;;;;;5091671;28;20047;-71
2022/07/28 12:20:15;;;;;;;3.40;1.40;;;22.50;93.50;;;;;;5093098;28;20494;-71
2022/07/28 12:22:57;;;;;;;4.03;1.45;;;22.60;93.30;;;;;;5092668;28;20055;-72
2022/07/28 12:25:22;;;;;;;4.43;1.33;;;22.80;93.10;;;;;;5092283;28;20429;-71
2022/07/28 12:27:49;;;;;;;3.72;1.52;;;23.00;93.00;;;;;;5093396;28;20051;-71
2022/07/28 12:30:35;;;;;;;2.63;1.40;;;23.30;92.90;;;;;;5097109;28;20509;-69
2022/07/28 12:33:21;;;;;;;3.30;1.27;;;23.70;92.90;;;;;;5093190;28;20052;-69
2022/07/28 12:35:50;;;;;;;2.72;1.05;;;24.00;92.40;;;;;;5093156;28;20085;-69
2022/07/28 12:38:19;;;;;;;4.10;1.20;;;24.30;92.50;;;;;;5093100;28;20123;-69
2022/07/28 12:40:45;;;;;;;2.90;1.25;;;24.50;92.60;;;;;;5091607;28;20113;-70
2022/07/28 12:43:11;;;;;;;2.67;1.30;;;24.80;92.50;;;;;;5090899;28;20455;-69
2022/07/28 12:45:47;;;;;;;2.03;1.10;;;24.90;92.10;;;;;;5091481;28;20051;-70
2022/07/28 12:48:12;;;;;;;;;;;24.90;91.90;;;;;;5093349;28;20126;-70
2022/07/28 12:50:39;;;;;;;3.25;1.10;;;24.90;91.90;;;;;;5092805;28;20016;-69
2022/07/28 12:53:09;;;;;;;3.22;1.25;;;24.90;92.00;;;;;;5091209;28;20040;-69
2022/07/28 12:55:37;;;;;;;3.03;1.48;;;25.00;92.10;;;;;;5092191;28;20043;-70